Time;durP1;ratioP1;P1;durP2;ratioP2;P2;SDS_P1;SDS_P2;PMS_P1;PMS_P2;Temp;Humidity;BMP_temperature;BMP_pressure;BME280_temperature;BME280_humidity;BME280_pressure;Samples;Min_cycle;Max_cycle;Signal;HPM_P1;HPM_P2
2022/11/09 09:00:28;;;;;;;14.33;11.23;;;;;;;11.61;100.00;100435.65;1780323;78;22981;-69
2022/11/09 09:02:55;;;;;;;15.72;11.57;;;;;;;11.68;100.00;100438.44;1761932;80;21396;-69
2022/11/09 09:05:23;;;;;;;17.00;12.65;;;;;;;11.83;100.00;100433.66;1759105;80;21059;-69
2022/11/09 09:07:50;;;;;;;16.27;12.53;;;;;;;11.79;100.00;100423.82;1768808;80;20996;-69
2022/11/09 09:10:17;;;;;;;16.45;12.73;;;;;;;11.79;100.00;100421.62;1769811;80;21102;-69
2022/11/09 09:12:44;;;;;;;15.45;11.40;;;;;;;11.83;100.00;100422.19;1766663;80;21497;-69
2022/11/09 09:15:13;;;;;;;13.70;10.85;;;;;;;11.91;100.00;100415.41;1764188;80;21007;-69
2022/11/09 09:17:39;;;;;;;14.63;11.38;;;;;;;12.04;100.00;100408.14;1768442;80;20973;-69
2022/11/09 09:20:06;;;;;;;15.65;12.50;;;;;;;12.18;100.00;100413.40;1761047;80;21090;-69
2022/11/09 09:22:33;;;;;;;15.63;11.90;;;;;;;12.23;100.00;100415.30;1755133;80;21073;-69
2022/11/09 09:25:00;;;;;;;15.35;12.25;;;;;;;12.27;100.00;100402.23;1763323;80;21016;-68
2022/11/09 09:27:28;;;;;;;15.58;11.48;;;;;;;12.31;100.00;100403.88;1769442;80;20983;-69
2022/11/09 09:29:55;;;;;;;14.38;10.45;;;;;;;12.39;100.00;100400.65;1759768;80;21063;-70
2022/11/09 09:32:22;;;;;;;14.65;11.63;;;;;;;12.53;100.00;100394.14;1771811;80;20984;-70
2022/11/09 09:34:49;;;;;;;14.40;10.68;;;;;;;12.68;100.00;100395.55;1758680;80;21109;-69
2022/11/09 09:37:16;;;;;;;13.93;10.43;;;;;;;12.74;100.00;100388.45;1754662;80;21011;-70
2022/11/09 09:39:43;;;;;;;13.72;9.90;;;;;;;12.80;100.00;100393.37;1761955;80;20975;-69
2022/11/09 09:42:30;;;;;;;;;;;;;;;12.88;100.00;100388.21;1762795;80;21011;-69
2022/11/09 09:45:06;;;;;;;14.43;9.33;;;;;;;12.89;100.00;100387.67;1667998;84;20173;-68
2022/11/09 09:47:57;;;;;;;11.78;8.75;;;;;;;12.83;100.00;100388.73;1685704;83;21578;-68
2022/11/09 09:50:40;;;;;;;15.72;12.15;;;;;;;12.85;100.00;100379.73;1706170;83;21815;-68
2022/11/09 09:53:40;;;;;;;13.85;10.15;;;;;;;12.93;100.00;100377.84;1713941;83;21074;-68
2022/11/09 09:56:20;;;;;;;13.72;8.35;;;;;;;13.00;100.00;100374.84;1665850;83;21074;-68
2022/11/09 09:59:07;;;;;;;11.10;8.48;;;;;;;13.11;100.00;100375.95;1713108;82;21629;-68
2022/11/09 10:01:42;;;;;;;11.40;7.95;;;;;;;13.19;100.00;100378.14;1691461;83;21697;-68
2022/11/09 10:04:39;;;;;;;11.10;7.70;;;;;;;13.17;100.00;100377.61;1699466;84;21094;-68
2022/11/09 10:07:18;;;;;;;12.33;8.38;;;;;;;13.13;100.00;100378.42;1651018;84;21051;-66
2022/11/09 10:10:02;;;;;;;12.13;8.25;;;;;;;13.06;100.00;100370.47;1689444;84;21030;-68
2022/11/09 10:13:00;;;;;;;9.53;7.50;;;;;;;13.04;100.00;100375.36;1695455;84;21511;-68
2022/11/09 10:16:05;;;;;;;8.58;6.35;;;;;;;13.03;100.00;100372.38;1756609;81;21059;-68
2022/11/09 10:19:05;;;;;;;13.28;8.85;;;;;;;12.99;100.00;100365.81;1768055;81;21043;-69
2022/11/09 13:40:56;;;;;;;11.30;6.33;;;;;;;11.31;100.00;100303.48;1638838;86;21624;-78
2022/11/09 13:43:41;;;;;;;10.25;6.65;;;;;;;11.26;100.00;100302.64;1635906;86;21180;-78
2022/11/09 13:46:32;;;;;;;10.45;7.08;;;;;;;11.13;100.00;100305.27;1642790;84;21069;-76
2022/11/09 13:59:34;;;;;;;10.68;6.00;;;;;;;10.78;100.00;100303.08;1743297;77;21731;-66
2022/11/09 14:02:22;;;;;;;8.85;5.87;;;;;;;10.79;100.00;100300.65;1706721;82;21601;-68
2022/11/09 14:05:29;;;;;;;9.55;6.83;;;;;;;10.66;100.00;100299.73;1685362;82;21055;-68
2022/11/09 14:08:26;;;;;;;9.75;7.00;;;;;;;10.53;100.00;100293.32;1688144;83;21539;-68
2022/11/09 14:11:37;;;;;;;9.23;6.58;;;;;;;10.41;100.00;100300.30;1703204;83;20991;-66
2022/11/09 14:14:57;;;;;;;11.83;6.80;;;;;;;10.30;100.00;100299.91;1690445;83;21583;-68
2022/11/09 14:18:22;;;;;;;9.18;6.05;;;;;;;10.28;100.00;100299.87;1694567;83;21043;-67
2022/11/09 14:21:36;;;;;;;9.50;6.62;;;;;;;10.27;100.00;100302.33;1683359;83;21022;-68
2022/11/09 14:24:28;;;;;;;9.43;6.10;;;;;;;10.14;100.00;100304.89;1681720;83;21052;-67
2022/11/09 14:27:18;;;;;;;12.50;6.80;;;;;;;10.00;100.00;100311.77;1692708;82;21004;-67
2022/11/09 14:30:20;;;;;;;8.33;5.95;;;;;;;9.88;100.00;100305.09;1692360;83;21718;-67
2022/11/09 14:33:24;;;;;;;11.20;6.22;;;;;;;9.77;100.00;100316.11;1700348;83;21579;-68
2022/11/09 14:36:10;;;;;;;10.23;6.55;;;;;;;9.74;100.00;100316.62;1685090;83;21015;-68
2022/11/09 14:38:57;;;;;;;9.33;6.57;;;;;;;9.73;100.00;100310.89;1694302;83;21114;-68
2022/11/09 14:41:42;;;;;;;14.15;8.98;;;;;;;9.66;100.00;100313.80;1688990;83;21758;-68
2022/11/09 14:44:41;;;;;;;18.57;11.55;;;;;;;9.55;100.00;100317.98;1685712;83;21412;-76
2022/11/09 14:47:32;;;;;;;21.82;13.03;;;;;;;9.44;100.00;100314.30;1691920;83;21079;-75
2022/11/09 14:50:27;;;;;;;24.02;14.28;;;;;;;9.29;100.00;100312.19;1650594;85;21723;-76
2022/11/09 14:53:31;;;;;;;21.60;12.78;;;;;;;9.22;100.00;100318.32;1654480;85;21011;-76
2022/11/09 14:56:18;;;;;;;18.45;11.45;;;;;;;9.19;100.00;100316.64;1645929;85;21023;-76
2022/11/09 14:59:09;;;;;;;18.52;11.55;;;;;;;9.21;100.00;100322.66;1651803;85;21119;-75
2022/11/09 15:02:06;;;;;;;17.57;10.85;;;;;;;9.13;100.00;100319.83;1637306;85;21609;-76
2022/11/09 15:04:58;;;;;;;16.63;11.40;;;;;;;9.01;100.00;100321.80;1647315;85;21071;-76
2022/11/09 15:07:44;;;;;;;15.20;9.63;;;;;;;8.91;100.00;100326.53;1627059;87;21119;-76
2022/11/09 15:10:31;;;;;;;13.70;9.23;;;;;;;8.81;100.00;100328.26;1628424;86;21114;-76
2022/11/09 15:13:19;;;;;;;20.80;13.22;;;;;;;8.77;100.00;100329.81;1693950;83;21587;-69
2022/11/09 15:16:07;;;;;;;14.80;10.15;;;;;;;8.80;100.00;100333.39;1698163;83;21451;-68
2022/11/09 15:18:53;;;;;;;15.50;11.18;;;;;;;8.73;100.00;100324.05;1685703;83;21060;-69
2022/11/09 15:21:40;;;;;;;18.00;11.57;;;;;;;8.62;100.00;100322.23;1693099;83;21076;-67
2022/11/09 15:24:27;;;;;;;17.10;12.68;;;;;;;8.53;100.00;100316.09;1687383;83;22418;-67
2022/11/09 15:27:33;;;;;;;23.67;13.83;;;;;;;8.43;100.00;100322.17;1686394;83;21640;-68
2022/11/09 15:30:29;;;;;;;20.32;13.60;;;;;;;8.40;100.00;100324.81;1661946;84;21149;-67
2022/11/09 15:33:30;;;;;;;20.32;13.45;;;;;;;8.43;100.00;100324.88;1651950;85;21091;-67
2022/11/09 15:36:23;;;;;;;23.27;16.85;;;;;;;8.38;100.00;100316.64;1652238;85;21595;-67
2022/11/09 15:39:17;;;;;;;23.02;15.68;;;;;;;8.29;100.00;100318.91;1659074;83;21090;-67
2022/11/09 15:42:03;;;;;;;23.07;16.10;;;;;;;8.22;100.00;100321.47;1643195;86;21063;-67
2022/11/09 15:44:56;;;;;;;23.92;15.45;;;;;;;8.20;100.00;100320.34;1658546;84;21103;-67
2022/11/09 15:47:50;;;;;;;23.60;16.67;;;;;;;8.23;100.00;100317.14;1684772;83;21106;-67
2022/11/09 15:50:35;;;;;;;25.68;17.80;;;;;;;8.21;100.00;100319.28;1676374;83;21065;-67
2022/11/09 15:53:20;;;;;;;23.30;16.85;;;;;;;8.11;100.00;100324.52;1693218;83;21068;-67
2022/11/09 15:56:08;;;;;;;23.00;16.80;;;;;;;8.05;100.00;100324.09;1696535;82;21533;-68
2022/11/09 15:58:53;;;;;;;22.95;16.37;;;;;;;8.01;100.00;100327.00;1695524;83;21619;-68
2022/11/09 16:01:39;;;;;;;26.70;18.30;;;;;;;8.07;100.00;100332.84;1651787;85;21664;-68
2022/11/09 16:04:24;;;;;;;26.10;17.87;;;;;;;8.03;100.00;100332.19;1659413;84;21630;-68
2022/11/09 16:07:13;;;;;;;27.10;18.40;;;;;;;7.95;100.00;100326.61;1626864;86;21102;-69
2022/11/09 16:09:58;;;;;;;27.60;18.92;;;;;;;7.87;100.00;100335.11;1610348;86;21161;-68
2022/11/09 16:12:43;;;;;;;27.02;19.20;;;;;;;7.87;100.00;100333.75;1650615;85;21094;-69
2022/11/09 16:15:28;;;;;;;25.75;18.07;;;;;;;7.91;100.00;100338.99;1650991;83;21537;-69
2022/11/09 16:18:16;;;;;;;28.10;19.52;;;;;;;7.88;100.00;100328.63;1648269;84;21092;-68
2022/11/09 16:21:11;;;;;;;27.52;18.90;;;;;;;7.78;100.00;100334.68;1659679;85;21107;-69
2022/11/09 16:23:55;;;;;;;25.97;18.55;;;;;;;7.70;100.00;100330.97;1633486;85;21062;-68
2022/11/09 16:26:41;;;;;;;26.40;19.27;;;;;;;7.70;100.00;100331.50;1626854;86;21084;-68
2022/11/09 16:29:27;;;;;;;26.00;18.65;;;;;;;7.71;100.00;100329.92;1648801;84;21422;-67
2022/11/09 16:32:12;;;;;;;28.07;20.32;;;;;;;7.69;100.00;100332.55;1674516;84;21619;-68
2022/11/09 16:34:57;;;;;;;26.07;20.37;;;;;;;7.62;100.00;100333.21;1685097;83;21062;-67
2022/11/09 16:37:42;;;;;;;28.17;19.48;;;;;;;7.54;100.00;100334.95;1680719;83;21668;-67
2022/11/09 16:40:28;;;;;;;26.30;19.20;;;;;;;7.52;100.00;100339.23;1667187;83;21100;-67
2022/11/09 16:43:13;;;;;;;26.55;19.45;;;;;;;7.56;100.00;100339.59;1684772;83;21660;-69
2022/11/09 16:45:59;;;;;;;24.95;19.37;;;;;;;7.52;100.00;100344.66;1692204;83;21102;-67
2022/11/09 16:48:44;;;;;;;27.82;20.32;;;;;;;7.42;100.00;100341.20;1692584;83;21026;-67
2022/11/09 16:51:30;;;;;;;28.95;20.92;;;;;;;7.33;100.00;100341.25;1692060;83;21086;-68
2022/11/09 16:54:15;;;;;;;27.48;19.62;;;;;;;7.32;100.00;100342.85;1685827;83;21704;-67
2022/11/09 16:57:01;;;;;;;27.93;20.17;;;;;;;7.33;100.00;100341.80;1683903;83;21086;-68
2022/11/09 16:59:46;;;;;;;30.40;21.70;;;;;;;7.28;100.00;100348.44;1680943;83;21642;-67
2022/11/09 17:02:31;;;;;;;30.97;23.00;;;;;;;7.18;100.00;100343.62;1686661;83;21077;-68
2022/11/09 17:05:22;;;;;;;33.67;23.50;;;;;;;7.10;100.00;100339.07;1683052;82;21082;-67
2022/11/09 17:08:09;;;;;;;41.65;25.37;;;;;;;7.09;100.00;100338.24;1649851;82;21002;-67
2022/11/09 17:10:55;;;;;;;35.00;24.43;;;;;;;7.11;100.00;100336.14;1687829;82;21084;-66
2022/11/09 17:13:41;;;;;;;36.45;24.87;;;;;;;7.06;100.00;100330.59;1688630;83;21064;-67
2022/11/09 17:16:27;;;;;;;36.53;26.10;;;;;;;6.99;100.00;100337.48;1695558;83;21551;-68
2022/11/09 17:19:12;;;;;;;38.15;27.45;;;;;;;6.91;100.00;100328.34;1694065;83;21097;-68
2022/11/09 17:21:59;;;;;;;39.83;28.80;;;;;;;6.87;100.00;100320.38;1691265;83;21064;-67
2022/11/09 17:24:44;;;;;;;42.98;28.32;;;;;;;6.88;100.00;100321.21;1687850;83;21093;-67
2022/11/09 17:27:29;;;;;;;40.65;28.17;;;;;;;6.86;100.00;100321.98;1686174;83;21477;-67
2022/11/09 17:30:16;;;;;;;39.40;28.40;;;;;;;6.81;100.00;100319.97;1688107;83;22368;-66
2022/11/09 17:33:02;;;;;;;41.70;28.67;;;;;;;6.72;100.00;100313.79;1667294;83;21526;-67
2022/11/09 17:35:47;;;;;;;42.33;28.87;;;;;;;6.64;100.00;100315.47;1701063;82;21139;-67
2022/11/09 17:38:32;;;;;;;35.03;26.25;;;;;;;6.59;100.00;100310.75;1692587;83;21433;-67
2022/11/09 17:41:19;;;;;;;46.40;31.37;;;;;;;6.61;100.00;100314.59;1683753;83;21127;-67
2022/11/09 17:44:04;;;;;;;49.13;32.33;;;;;;;6.59;100.00;100310.75;1597252;86;21148;-67
2022/11/09 17:46:49;;;;;;;42.20;29.65;;;;;;;6.53;100.00;100312.20;1634406;86;21396;-67
2022/11/09 17:49:34;;;;;;;39.92;30.50;;;;;;;6.44;100.00;100307.15;1684649;83;21098;-66
2022/11/09 17:52:19;;;;;;;69.90;43.02;;;;;;;6.36;100.00;100307.47;1686698;82;21402;-66
2022/11/09 17:55:05;;;;;;;106.58;52.33;;;;;;;6.34;100.00;100307.41;1687795;82;21595;-67
2022/11/09 17:57:50;;;;;;;81.15;45.85;;;;;;;6.34;100.00;100312.27;1687464;83;21544;-66
2022/11/09 18:00:35;;;;;;;49.95;32.15;;;;;;;6.34;100.00;100316.32;1684843;83;21183;-66
2022/11/09 18:03:21;;;;;;;37.48;27.80;;;;;;;6.34;100.00;100317.67;1664363;83;21400;-67
2022/11/09 18:06:18;;;;;;;38.35;29.00;;;;;;;6.30;100.00;100315.16;1688115;83;21089;-67
2022/11/09 18:09:05;;;;;;;;;;;;;;;6.23;100.00;100316.30;1620105;86;21178;-67
2022/11/09 18:11:50;;;;;;;41.75;29.70;;;;;;;6.16;100.00;100311.52;1661281;85;20121;-67
2022/11/09 18:14:34;;;;;;;42.13;31.00;;;;;;;6.04;100.00;100318.21;1629947;86;21131;-67
2022/11/09 18:17:19;;;;;;;43.35;30.30;;;;;;;6.04;100.00;100314.16;1684428;82;21035;-67
2022/11/09 18:20:05;;;;;;;39.73;30.55;;;;;;;6.10;100.00;100321.87;1689771;83;21101;-67
2022/11/09 18:22:52;;;;;;;46.80;32.80;;;;;;;6.12;100.00;100317.08;1694711;83;21633;-68
2022/11/09 18:25:37;;;;;;;41.95;30.32;;;;;;;6.13;100.00;100317.38;1624720;86;21123;-67
2022/11/09 18:28:22;;;;;;;42.15;30.25;;;;;;;6.09;100.00;100321.06;1695076;83;21124;-68
2022/11/09 18:31:09;;;;;;;40.90;29.20;;;;;;;6.04;100.00;100318.21;1679356;83;21158;-67
2022/11/09 18:33:55;;;;;;;38.70;28.90;;;;;;;6.03;100.00;100321.95;1695370;83;21263;-67
2022/11/09 18:36:40;;;;;;;39.50;27.98;;;;;;;6.04;100.00;100321.44;1689788;84;21084;-67
2022/11/09 18:39:26;;;;;;;38.10;28.05;;;;;;;6.03;100.00;100323.31;1695727;82;21122;-66
2022/11/09 18:42:10;;;;;;;40.33;29.72;;;;;;;5.98;100.00;100324.02;1682733;83;21410;-66
2022/11/09 18:44:56;;;;;;;39.95;29.18;;;;;;;5.91;100.00;100325.14;1695060;83;21476;-67
2022/11/09 18:47:41;;;;;;;41.88;28.62;;;;;;;5.85;100.00;100324.65;1695444;83;21079;-66
2022/11/09 18:50:26;;;;;;;40.40;28.17;;;;;;;5.83;100.00;100331.64;1690406;83;21112;-67
2022/11/09 18:53:11;;;;;;;42.15;28.62;;;;;;;5.85;100.00;100330.88;1691910;84;21040;-66
2022/11/09 18:56:00;;;;;;;41.20;28.60;;;;;;;5.86;100.00;100334.45;1687066;83;21138;-66
2022/11/09 18:58:49;;;;;;;41.33;28.98;;;;;;;5.88;100.00;100339.91;1692084;83;21516;-67
2022/11/09 19:01:34;;;;;;;44.73;30.68;;;;;;;5.86;100.00;100337.98;1688452;83;22004;-67
2022/11/09 19:04:19;;;;;;;43.17;30.15;;;;;;;5.80;100.00;100339.38;1694147;83;21125;-67
2022/11/09 19:07:04;;;;;;;41.75;28.50;;;;;;;5.78;100.00;100338.24;1692131;83;22310;-67
2022/11/09 19:09:50;;;;;;;42.55;29.80;;;;;;;5.81;100.00;100339.69;1685764;83;21114;-67
2022/11/09 19:12:34;;;;;;;41.37;29.45;;;;;;;5.82;100.00;100344.02;1694296;83;21049;-66
2022/11/09 19:15:19;;;;;;;44.95;30.20;;;;;;;5.82;100.00;100345.37;1693702;83;21132;-66
2022/11/09 19:18:04;;;;;;;44.00;29.63;;;;;;;5.79;100.00;100339.07;1698618;83;21010;-67
2022/11/09 19:20:50;;;;;;;45.43;29.35;;;;;;;5.72;100.00;100339.67;1687412;82;21078;-68
2022/11/09 19:23:48;;;;;;;46.18;29.18;;;;;;;5.71;100.00;100345.59;1698211;83;21177;-67
2022/11/09 19:26:34;;;;;;;39.63;27.65;;;;;;;5.70;100.00;100342.62;1682004;83;21090;-67
2022/11/09 19:29:19;;;;;;;43.20;28.57;;;;;;;5.70;100.00;100345.84;1681556;83;21458;-66
2022/11/09 19:32:05;;;;;;;39.78;26.82;;;;;;;5.68;100.00;100346.05;1656739;84;21068;-68
2022/11/09 19:34:52;;;;;;;41.00;28.52;;;;;;;5.65;100.00;100341.63;1682740;83;21651;-68
2022/11/09 19:37:37;;;;;;;41.33;28.10;;;;;;;5.58;100.00;100339.52;1642576;85;21948;-67
2022/11/09 19:40:22;;;;;;;39.83;27.77;;;;;;;5.57;100.00;100348.14;1669783;85;21098;-66
2022/11/09 19:43:08;;;;;;;38.30;26.52;;;;;;;5.61;100.00;100353.92;1617470;86;21027;-66
2022/11/09 19:45:53;;;;;;;39.03;27.95;;;;;;;5.61;100.00;100352.58;1666890;85;21138;-67
2022/11/09 19:48:44;;;;;;;37.93;26.33;;;;;;;5.62;100.00;100348.31;1636751;85;21153;-66
2022/11/09 19:51:30;;;;;;;39.20;27.95;;;;;;;5.59;100.00;100346.06;1682872;84;21009;-67
2022/11/09 19:54:16;;;;;;;37.33;26.37;;;;;;;5.53;100.00;100350.98;1630286;87;21559;-68
2022/11/09 19:57:00;;;;;;;39.70;27.30;;;;;;;5.51;100.00;100345.83;1634373;87;21591;-67
2022/11/09 19:59:46;;;;;;;37.75;26.73;;;;;;;5.54;100.00;100339.14;1614619;88;21117;-68
2022/11/09 20:02:32;;;;;;;36.85;25.75;;;;;;;5.56;100.00;100343.81;1620051;87;21079;-68
2022/11/09 20:05:17;;;;;;;34.92;25.82;;;;;;;5.57;100.00;100344.61;1629281;86;21169;-68
2022/11/09 20:08:03;;;;;;;36.58;27.25;;;;;;;5.55;100.00;100351.61;1616751;87;21077;-68
2022/11/09 20:10:47;;;;;;;38.08;26.10;;;;;;;5.50;100.00;100352.27;1609721;88;21084;-67
2022/11/09 20:13:32;;;;;;;37.23;26.02;;;;;;;5.52;100.00;100352.06;1607602;87;21137;-67
2022/11/09 20:16:18;;;;;;;38.02;25.40;;;;;;;5.56;100.00;100351.09;1632979;86;21105;-68
2022/11/09 20:19:04;;;;;;;39.20;26.23;;;;;;;5.57;100.00;100348.66;1607030;86;21160;-68
2022/11/09 20:21:50;;;;;;;36.33;26.50;;;;;;;5.59;100.00;100347.41;1644514;86;21085;-67
2022/11/09 20:24:36;;;;;;;37.45;26.25;;;;;;;5.58;100.00;100343.05;1649372;87;21648;-68
2022/11/09 20:27:22;;;;;;;38.80;26.90;;;;;;;5.55;100.00;100343.51;1648748;85;21574;-68
2022/11/09 20:30:08;;;;;;;38.20;27.22;;;;;;;5.48;100.00;100353.03;1629647;86;21190;-67
2022/11/09 20:32:54;;;;;;;37.78;26.57;;;;;;;5.47;100.00;100353.24;1622548;87;21508;-67
2022/11/09 20:35:39;;;;;;;38.83;27.27;;;;;;;5.49;100.00;100353.86;1648266;85;21110;-67
2022/11/09 20:38:24;;;;;;;40.85;27.05;;;;;;;5.51;100.00;100355.80;1599162;88;21112;-67
2022/11/09 20:41:10;;;;;;;37.08;25.50;;;;;;;5.53;100.00;100355.59;1613094;88;21548;-67
2022/11/09 20:43:55;;;;;;;41.33;27.13;;;;;;;5.55;100.00;100358.36;1635753;86;21446;-67
2022/11/09 20:46:40;;;;;;;38.95;28.15;;;;;;;5.53;100.00;100353.17;1613404;88;21073;-67
2022/11/09 20:49:25;;;;;;;41.73;27.73;;;;;;;5.49;100.00;100356.02;1635153;87;21166;-67
2022/11/09 20:52:10;;;;;;;37.93;27.15;;;;;;;5.48;100.00;100354.38;1629421;86;21094;-67
2022/11/09 20:54:55;;;;;;;37.05;26.30;;;;;;;5.51;100.00;100351.75;1623438;88;21109;-68
2022/11/09 20:57:41;;;;;;;36.33;25.72;;;;;;;5.53;100.00;100352.34;1622281;87;21097;-68
2022/11/09 21:00:26;;;;;;;38.78;26.17;;;;;;;5.53;100.00;100354.52;1634169;86;21671;-68
2022/11/09 21:03:12;;;;;;;35.70;26.25;;;;;;;5.53;100.00;100346.94;1605397;87;21081;-67
2022/11/09 21:05:59;;;;;;;36.73;28.17;;;;;;;5.50;100.00;100341.47;1617905;86;21436;-66
2022/11/09 21:08:50;;;;;;;40.17;27.35;;;;;;;5.44;100.00;100345.07;1626304;86;21609;-66
2022/11/09 21:11:35;;;;;;;39.60;27.10;;;;;;;5.42;100.00;100343.66;1616455;87;21114;-66
2022/11/09 21:14:21;;;;;;;39.00;26.82;;;;;;;5.45;100.00;100339.98;1631432;86;21163;-66
2022/11/09 21:17:06;;;;;;;37.05;26.95;;;;;;;5.47;100.00;100339.22;1634884;85;21050;-65
2022/11/09 21:19:52;;;;;;;39.23;27.58;;;;;;;5.49;100.00;100342.51;1647442;85;21138;-65
2022/11/09 21:31:49;;;;;;;41.65;27.85;;;;;;;5.47;100.00;100347.32;1615354;88;21074;-66
2022/11/09 21:34:35;;;;;;;40.12;27.07;;;;;;;5.49;100.00;100344.41;1613712;87;21217;-67
2022/11/09 21:37:20;;;;;;;42.25;27.27;;;;;;;5.48;100.00;100344.93;1641014;85;21643;-67
2022/11/09 21:40:07;;;;;;;36.85;26.87;;;;;;;5.50;100.00;100351.44;1605896;87;21120;-67
2022/11/09 21:42:54;;;;;;;37.08;27.00;;;;;;;5.47;100.00;100337.88;1629580;87;21054;-67
2022/11/09 21:45:40;;;;;;;43.75;28.15;;;;;;;5.41;100.00;100352.28;1618808;86;21186;-66
2022/11/09 21:48:26;;;;;;;41.88;27.93;;;;;;;5.38;100.00;100350.03;1636172;86;21054;-65
2022/11/09 21:51:12;;;;;;;42.55;28.02;;;;;;;5.40;100.00;100348.44;1608188;88;21084;-66
2022/11/09 21:53:57;;;;;;;38.23;25.92;;;;;;;5.41;100.00;100346.05;1612678;88;21162;-66
2022/11/09 21:56:42;;;;;;;37.98;26.95;;;;;;;5.43;100.00;100348.81;1628602;86;21046;-66
2022/11/09 21:59:27;;;;;;;40.10;28.10;;;;;;;5.45;100.00;100352.66;1619759;88;21123;-65
2022/11/09 22:02:13;;;;;;;38.30;28.20;;;;;;;5.42;100.00;100352.55;1618613;86;21047;-66
2022/11/09 22:04:57;;;;;;;40.33;27.70;;;;;;;5.37;100.00;100352.94;1643250;85;21161;-65
2022/11/09 22:07:44;;;;;;;39.85;27.75;;;;;;;5.37;100.00;100355.63;1636356;85;21181;-66
2022/11/09 22:10:29;;;;;;;41.25;28.38;;;;;;;5.39;100.00;100351.66;1645521;85;21705;-66
2022/11/09 22:16:19;;;;;;;39.25;27.05;;;;;;;5.46;100.00;100345.66;1620121;87;21399;-67
2022/11/09 22:22:09;;;;;;;42.30;29.35;;;;;;;5.54;100.00;100344.55;1624327;87;21072;-67
2022/11/09 22:24:54;;;;;;;40.35;29.23;;;;;;;5.48;100.00;100344.10;1644031;87;21207;-66
2022/11/09 22:27:39;;;;;;;41.92;28.83;;;;;;;5.47;100.00;100334.34;1620157;86;21196;-67
2022/11/09 22:30:24;;;;;;;41.90;28.12;;;;;;;5.47;100.00;100334.34;1627523;86;21731;-67
2022/11/09 22:33:09;;;;;;;41.58;27.98;;;;;;;5.46;100.00;100332.16;1618746;86;21104;-67
2022/11/09 22:35:59;;;;;;;40.58;27.70;;;;;;;5.44;100.00;100342.89;1616673;86;21111;-67
2022/11/09 22:38:45;;;;;;;39.65;28.17;;;;;;;5.42;100.00;100336.35;1637097;86;21107;-67
2022/11/09 22:41:31;;;;;;;42.05;30.02;;;;;;;5.36;100.00;100339.13;1667038;84;21101;-66
2022/11/09 22:44:17;;;;;;;42.40;28.67;;;;;;;5.26;100.00;100335.59;1664728;85;21194;-67
2022/11/09 22:47:03;;;;;;;44.05;28.52;;;;;;;5.22;100.00;100333.03;1666717;85;21105;-67
2022/11/09 22:50:17;;;;;;;43.25;28.67;;;;;;;5.23;100.00;100323.90;1784738;78;22893;-69
2022/11/09 22:53:02;;;;;;;41.90;28.65;;;;;;;5.19;100.00;100329.95;1759277;80;21019;-69
2022/11/09 22:55:54;;;;;;;41.00;28.80;;;;;;;5.16;100.00;100340.68;1761597;80;21074;-69
2022/11/09 22:58:39;;;;;;;43.68;30.77;;;;;;;5.14;100.00;100334.66;1759023;80;21985;-69
2022/11/09 23:01:24;;;;;;;45.28;30.50;;;;;;;5.11;100.00;100335.63;1767770;80;21042;-69
2022/11/09 23:04:09;;;;;;;45.35;31.65;;;;;;;5.03;100.00;100339.42;1733520;80;21023;-69
2022/11/09 23:06:54;;;;;;;46.40;31.25;;;;;;;4.94;100.00;100338.90;1759845;80;20998;-69
2022/11/09 23:09:39;;;;;;;45.40;30.60;;;;;;;4.90;100.00;100337.68;1771361;80;21043;-69
2022/11/09 23:12:24;;;;;;;42.00;29.87;;;;;;;4.91;100.00;100337.16;1779319;79;20949;-69
2022/11/09 23:15:12;;;;;;;42.25;30.30;;;;;;;4.91;100.00;100335.81;1759069;80;21004;-69
2022/11/09 23:21:03;;;;;;;41.88;29.30;;;;;;;4.89;100.00;100337.89;1763894;80;21039;-69
2022/11/09 23:23:48;;;;;;;44.70;30.23;;;;;;;4.87;100.00;100342.69;1751322;80;21441;-69
2022/11/09 23:26:33;;;;;;;45.83;30.88;;;;;;;4.81;100.00;100344.41;1756398;80;20987;-69
2022/11/09 23:29:18;;;;;;;44.55;31.75;;;;;;;4.72;100.00;100349.75;1771630;80;21137;-68
2022/11/09 23:32:03;;;;;;;43.75;30.92;;;;;;;4.69;100.00;100348.02;1753464;80;21444;-68
2022/11/09 23:34:48;;;;;;;44.00;30.35;;;;;;;4.68;100.00;100346.35;1763655;80;21114;-68
2022/11/09 23:37:33;;;;;;;44.33;30.25;;;;;;;4.68;100.00;100343.66;1761266;80;21011;-68
2022/11/09 23:40:20;;;;;;;42.27;29.50;;;;;;;4.67;100.00;100346.91;1766645;80;21055;-68
2022/11/09 23:43:08;;;;;;;43.28;28.55;;;;;;;4.67;100.00;100345.55;1768931;80;21004;-68
2022/11/09 23:45:53;;;;;;;40.80;28.77;;;;;;;4.68;100.00;100343.66;1762008;80;21149;-69
2022/11/09 23:48:39;;;;;;;40.05;28.77;;;;;;;4.69;100.00;100349.36;1730605;81;21078;-68
2022/11/09 23:51:24;;;;;;;42.48;30.12;;;;;;;4.65;100.00;100343.58;1765008;81;21055;-68
2022/11/09 23:54:09;;;;;;;44.27;30.32;;;;;;;4.60;100.00;100342.59;1756345;81;21027;-68
2022/11/09 23:56:54;;;;;;;43.05;29.75;;;;;;;4.59;100.00;100349.86;1762474;81;21024;-69
2022/11/09 23:59:38;;;;;;;42.83;29.90;;;;;;;4.60;100.00;100342.08;1758375;81;21150;-69
